createdAt,value
2018-04-22T00:00:18.292Z,70.00
2018-04-22T00:02:46.903Z,70.00
2018-04-22T00:05:14.776Z,70.00
2018-04-22T00:07:43.437Z,69.80
2018-04-22T00:10:11.167Z,69.90
2018-04-22T00:12:38.970Z,70.00
2018-04-22T00:15:07.498Z,71.30
2018-04-22T00:17:35.385Z,71.10
2018-04-22T00:20:03.187Z,71.90
2018-04-22T00:22:30.940Z,71.50
2018-04-22T00:24:58.784Z,71.80
2018-04-22T00:27:26.542Z,71.60
2018-04-22T00:29:54.691Z,71.80
2018-04-22T00:32:22.496Z,71.90
2018-04-22T00:34:50.239Z,72.00
2018-04-22T00:37:18.540Z,72.70
2018-04-22T00:39:46.418Z,72.20
2018-04-22T00:42:14.196Z,72.10
2018-04-22T00:44:43.214Z,71.90
2018-04-22T00:47:10.938Z,71.90
2018-04-22T00:49:38.799Z,72.00
2018-04-22T00:52:07.576Z,72.00
2018-04-22T00:54:35.346Z,71.70
2018-04-22T00:57:03.561Z,71.20
2018-04-22T00:59:31.322Z,70.60
2018-04-22T01:01:59.962Z,71.30
2018-04-22T01:04:27.773Z,71.30
2018-04-22T01:06:55.594Z,72.30
2018-04-22T01:09:23.783Z,72.20
2018-04-22T01:11:51.637Z,72.10
2018-04-22T01:14:19.413Z,72.90
2018-04-22T01:16:47.873Z,72.40
2018-04-22T01:19:15.611Z,72.30
2018-04-22T01:21:43.343Z,72.70
2018-04-22T01:24:12.063Z,71.20
2018-04-22T01:26:39.917Z,71.20
2018-04-22T01:29:07.655Z,71.40
2018-04-22T01:31:35.455Z,71.60
2018-04-22T01:34:03.340Z,72.50
2018-04-22T01:36:31.121Z,73.40
2018-04-22T01:38:58.906Z,73.60
2018-04-22T01:41:27.486Z,73.90
2018-04-22T01:43:56.091Z,73.80
2018-04-22T01:46:23.860Z,73.80
2018-04-22T01:48:51.751Z,73.00
2018-04-22T01:51:19.494Z,72.60
2018-04-22T01:53:47.231Z,72.70
2018-04-22T01:56:15.994Z,71.90
2018-04-22T01:58:43.889Z,71.80
2018-04-22T02:01:11.654Z,73.00
2018-04-22T02:03:39.576Z,73.20
2018-04-22T02:06:07.551Z,73.00
2018-04-22T02:08:35.513Z,73.10
2018-04-22T02:11:03.314Z,73.10
2018-04-22T02:13:32.072Z,73.70
2018-04-22T02:15:59.929Z,73.60
2018-04-22T02:18:27.905Z,73.50
2018-04-22T02:20:55.762Z,73.70
2018-04-22T02:23:23.592Z,73.60
2018-04-22T02:25:51.389Z,73.60
2018-04-22T02:28:19.254Z,73.60
2018-04-22T02:30:47.130Z,73.90
2018-04-22T02:33:14.987Z,73.50
2018-04-22T02:35:43.059Z,73.60
2018-04-22T02:38:11.034Z,73.10
2018-04-22T02:40:38.893Z,72.70
2018-04-22T02:43:06.756Z,72.30
2018-04-22T02:45:34.622Z,72.10
2018-04-22T02:48:02.487Z,72.00
2018-04-22T02:50:30.458Z,72.00
2018-04-22T02:52:58.222Z,72.70
2018-04-22T02:55:26.447Z,73.70
2018-04-22T02:57:54.208Z,72.90
2018-04-22T03:00:21.958Z,73.50
2018-04-22T03:02:50.590Z,73.30
2018-04-22T03:05:18.453Z,73.40
2018-04-22T03:07:46.206Z,73.30
2018-04-22T03:10:14.399Z,73.40
2018-04-22T03:12:42.235Z,74.70
2018-04-22T03:15:09.972Z,74.80
2018-04-22T03:17:38.628Z,73.70
2018-04-22T03:20:06.435Z,73.40
2018-04-22T03:22:34.301Z,73.20
2018-04-22T03:25:02.068Z,73.10
2018-04-22T03:27:29.900Z,74.20
2018-04-22T03:29:58.395Z,74.20
2018-04-22T03:32:26.169Z,74.20
2018-04-22T03:34:53.989Z,74.30
2018-04-22T03:37:21.863Z,74.20
2018-04-22T03:39:49.635Z,74.20
2018-04-22T03:42:18.197Z,74.40
2018-04-22T03:44:46.088Z,74.40
2018-04-22T03:47:14.591Z,74.20
2018-04-22T03:49:42.349Z,74.10
2018-04-22T03:52:10.189Z,74.90
2018-04-22T03:54:38.729Z,75.50
2018-04-22T03:57:09.162Z,75.40
2018-04-22T03:59:37.005Z,75.10
2018-04-22T04:02:04.752Z,74.90
2018-04-22T04:04:32.679Z,74.70
2018-04-22T04:07:00.472Z,74.90
2018-04-22T04:09:28.977Z,74.40
2018-04-22T04:11:56.852Z,74.30
2018-04-22T04:14:24.666Z,74.60
2018-04-22T04:16:53.228Z,74.50
2018-04-22T04:19:32.748Z,74.50
2018-04-22T04:22:12.468Z,74.90
2018-04-22T04:24:56.846Z,74.90
2018-04-22T04:30:22.741Z,75.50
2018-04-22T04:32:50.531Z,75.70
2018-04-22T04:35:18.337Z,74.30
2018-04-22T04:37:46.163Z,74.30
2018-04-22T04:40:14.094Z,73.70
2018-04-22T04:42:42.661Z,72.70
2018-04-22T04:45:11.241Z,73.10
2018-04-22T04:47:39.913Z,73.30
2018-04-22T04:50:07.675Z,72.90
2018-04-22T04:52:35.428Z,72.60
2018-04-22T04:55:03.439Z,72.00
2018-04-22T04:57:31.963Z,70.60
2018-04-22T04:59:59.721Z,70.50
2018-04-22T05:02:27.500Z,71.80
2018-04-22T05:04:55.383Z,71.00
2018-04-22T05:07:23.137Z,69.70
2018-04-22T05:09:50.889Z,68.90
2018-04-22T05:12:18.753Z,67.60
2018-04-22T05:14:46.507Z,66.40
2018-04-22T05:17:14.281Z,64.60
2018-04-22T05:19:42.171Z,62.90
2018-04-22T05:22:09.920Z,61.20
2018-04-22T05:24:37.683Z,59.50
2018-04-22T05:27:05.474Z,57.70
2018-04-22T05:29:34.379Z,57.20
2018-04-22T05:32:02.974Z,57.40
2018-04-22T05:34:30.723Z,57.40
2018-04-22T05:36:59.331Z,54.90
2018-04-22T05:39:32.356Z,54.70
2018-04-22T05:42:00.989Z,54.40
2018-04-22T05:44:28.753Z,55.20
2018-04-22T05:46:56.606Z,56.20
2018-04-22T05:49:24.420Z,56.40
2018-04-22T05:51:52.213Z,58.90
2018-04-22T05:54:20.006Z,57.50
2018-04-22T05:56:47.766Z,58.80
2018-04-22T05:59:15.549Z,59.00
2018-04-22T06:01:43.300Z,60.10
2018-04-22T06:04:11.088Z,57.40
2018-04-22T06:06:38.856Z,56.70
2018-04-22T06:09:06.626Z,57.10
2018-04-22T06:11:35.317Z,55.70
2018-04-22T06:14:03.890Z,54.80
2018-04-22T06:16:36.833Z,54.50
2018-04-22T06:19:09.596Z,55.90
2018-04-22T06:21:37.425Z,55.20
2018-04-22T06:24:09.500Z,55.00
2018-04-22T06:26:41.682Z,55.60
2018-04-22T06:29:09.484Z,55.80
2018-04-22T06:31:48.875Z,54.80
2018-04-22T06:34:16.800Z,56.10
2018-04-22T06:36:57.926Z,54.80
2018-04-22T06:39:25.740Z,56.30
2018-04-22T07:24:19.430Z,55.40
2018-04-22T07:26:58.742Z,50.30
2018-04-22T07:29:37.180Z,47.40
2018-04-22T08:03:15.823Z,40.60
2018-04-22T08:05:45.685Z,43.30
2018-04-22T08:11:42.403Z,43.80
2018-04-22T08:20:36.821Z,41.30
2018-04-22T08:23:04.708Z,42.30
2018-04-22T08:25:36.125Z,42.70
2018-04-22T08:28:09.532Z,42.80
2018-04-22T08:30:42.932Z,44.10
2018-04-22T08:33:39.671Z,42.70
2018-04-22T08:36:16.999Z,42.10
2018-04-22T08:38:45.091Z,41.40
2018-04-22T08:41:12.988Z,42.20
2018-04-22T08:43:48.448Z,40.90
2018-04-22T09:00:45.008Z,39.00
2018-04-22T09:03:43.621Z,39.70
2018-04-22T09:06:11.462Z,40.30
2018-04-22T09:08:41.635Z,40.70
2018-04-22T09:11:50.282Z,40.60
2018-04-22T09:22:21.424Z,39.90
2018-04-22T09:24:50.456Z,42.20
2018-04-22T09:30:10.745Z,39.90
2018-04-22T09:32:39.760Z,40.40
2018-04-22T09:35:07.598Z,41.00
2018-04-22T09:43:43.909Z,41.80
2018-04-22T09:46:11.687Z,42.40
2018-04-22T09:48:43.453Z,41.90
2018-04-22T09:51:29.156Z,43.20
2018-04-22T09:53:57.149Z,43.30
2018-04-22T09:59:25.625Z,41.50
2018-04-22T10:01:53.897Z,40.90
2018-04-22T10:04:21.703Z,38.60
2018-04-22T10:06:49.507Z,40.20
2018-04-22T10:09:17.391Z,41.40
2018-04-22T10:11:45.199Z,41.70
2018-04-22T10:14:13.151Z,41.30
2018-04-22T10:19:24.081Z,41.60
2018-04-22T10:21:51.909Z,43.70
2018-04-22T10:24:19.718Z,43.70
2018-04-22T10:26:48.078Z,43.30
2018-04-22T10:29:15.932Z,41.20
2018-04-22T10:31:44.788Z,40.80
2018-04-22T10:34:13.464Z,41.30
2018-04-22T10:39:50.435Z,40.20
2018-04-22T10:42:18.609Z,39.10
2018-04-22T10:44:53.835Z,39.50
2018-04-22T10:47:26.198Z,39.60
2018-04-22T10:52:57.935Z,41.30
2018-04-22T10:55:29.140Z,39.00
2018-04-22T10:57:57.006Z,39.00
2018-04-22T11:05:47.102Z,41.10
2018-04-22T11:10:58.514Z,41.10
2018-04-22T11:13:26.489Z,41.00
2018-04-22T11:24:17.500Z,38.40
2018-04-22T11:26:50.617Z,39.90
2018-04-22T11:29:18.627Z,38.20
2018-04-22T11:31:48.248Z,39.40
2018-04-22T11:34:38.103Z,39.30
2018-04-22T11:37:35.098Z,38.20
2018-04-22T11:40:12.963Z,38.70
2018-04-22T11:42:41.902Z,38.50
2018-04-22T11:48:04.458Z,37.80
2018-04-22T11:50:33.072Z,42.00
2018-04-22T11:54:42.307Z,40.40
2018-04-22T11:57:22.545Z,38.80
2018-04-22T11:59:51.252Z,40.20
2018-04-22T12:02:22.827Z,40.30
2018-04-22T12:04:50.685Z,38.00
2018-04-22T12:07:19.202Z,38.70
2018-04-22T12:09:47.858Z,37.00
2018-04-22T12:12:15.726Z,37.00
2018-04-22T12:14:43.644Z,40.30
2018-04-22T12:17:12.173Z,38.50
2018-04-22T12:19:39.990Z,38.50
2018-04-22T12:22:07.910Z,41.00
2018-04-22T12:24:35.774Z,37.80
2018-04-22T12:27:03.635Z,38.80
2018-04-22T12:29:31.501Z,37.00
2018-04-22T12:31:59.476Z,38.50
2018-04-22T12:34:27.437Z,40.00
2018-04-22T12:36:55.315Z,37.10
2018-04-22T12:39:25.225Z,36.00
2018-04-22T12:41:53.080Z,35.90
2018-04-22T12:44:20.882Z,34.90
2018-04-22T12:46:49.947Z,35.00
2018-04-22T12:49:17.806Z,34.90
2018-04-22T12:51:45.673Z,34.10
2018-04-22T12:54:13.635Z,31.60
2018-04-22T12:56:41.511Z,30.00
2018-04-22T12:59:09.371Z,31.80
2018-04-22T13:01:37.338Z,33.30
2018-04-22T13:04:05.209Z,34.20
2018-04-22T13:06:33.069Z,31.90
2018-04-22T13:09:00.939Z,30.80
2018-04-22T13:11:28.907Z,35.30
2018-04-22T13:13:56.777Z,29.60
2018-04-22T13:16:24.557Z,32.10
2018-04-22T13:18:53.214Z,32.90
2018-04-22T13:21:21.293Z,32.90
2018-04-22T13:23:49.153Z,32.20
2018-04-22T13:26:17.015Z,33.40
2018-04-22T13:28:45.394Z,33.20
2018-04-22T13:31:13.152Z,30.40
2018-04-22T13:33:40.933Z,32.20
2018-04-22T13:36:08.887Z,31.80
2018-04-22T13:38:36.767Z,31.90
2018-04-22T13:41:04.824Z,32.90
2018-04-22T13:43:33.203Z,33.00
2018-04-22T13:46:01.071Z,32.70
2018-04-22T13:48:28.936Z,31.60
2018-04-22T13:50:57.279Z,31.90
2018-04-22T13:53:25.120Z,33.90
2018-04-22T13:55:53.049Z,32.50
2018-04-22T13:58:21.025Z,30.50
2018-04-22T14:00:48.886Z,32.70
2018-04-22T14:03:17.027Z,34.60
2018-04-22T14:05:45.732Z,32.20
2018-04-22T14:08:14.119Z,32.10
2018-04-22T14:10:41.975Z,32.20
2018-04-22T14:13:09.843Z,33.00
2018-04-22T14:15:37.910Z,32.60
2018-04-22T14:18:05.784Z,34.00
2018-04-22T14:20:33.651Z,32.00
2018-04-22T14:23:01.619Z,32.30
2018-04-22T14:25:29.391Z,33.80
2018-04-22T14:27:57.134Z,31.90
2018-04-22T14:30:24.916Z,32.00
2018-04-22T14:32:52.663Z,33.80
2018-04-22T14:35:20.520Z,33.30
2018-04-22T14:37:48.607Z,32.00
2018-04-22T14:40:17.284Z,33.80
2018-04-22T14:42:45.970Z,34.90
2018-04-22T14:45:25.918Z,35.00
2018-04-22T14:47:53.888Z,34.20
2018-04-22T14:50:21.751Z,33.70
2018-04-22T14:52:49.718Z,34.10
2018-04-22T14:55:17.482Z,30.90
2018-04-22T14:57:45.391Z,34.00
2018-04-22T15:00:13.314Z,32.60
2018-04-22T15:02:41.291Z,33.90
2018-04-22T15:05:09.156Z,31.60
2018-04-22T15:07:37.017Z,32.10
2018-04-22T15:10:04.986Z,33.00
2018-04-22T15:12:32.850Z,33.20
2018-04-22T15:15:00.718Z,31.90
2018-04-22T15:17:28.518Z,33.50
2018-04-22T15:19:57.274Z,31.70
2018-04-22T15:22:25.132Z,31.70
2018-04-22T15:24:52.915Z,32.40
2018-04-22T15:27:20.813Z,32.90
2018-04-22T15:29:48.551Z,33.50
2018-04-22T15:32:17.073Z,34.00
2018-04-22T15:34:44.847Z,33.90
2018-04-22T15:37:12.631Z,33.10
2018-04-22T15:39:40.553Z,34.70
2018-04-22T15:42:08.346Z,34.20
2018-04-22T15:44:36.101Z,37.00
2018-04-22T15:47:03.950Z,37.00
2018-04-22T15:49:31.788Z,40.80
2018-04-22T15:52:00.282Z,39.80
2018-04-22T15:54:28.128Z,39.80
2018-04-22T15:56:56.639Z,40.00
2018-04-22T15:59:24.420Z,39.90
2018-04-22T16:01:52.420Z,38.60
2018-04-22T16:04:20.233Z,41.60
2018-04-22T16:06:48.042Z,39.30
2018-04-22T16:09:16.420Z,40.30
2018-04-22T16:11:44.287Z,39.20
2018-04-22T16:14:12.153Z,38.80
2018-04-22T16:16:40.130Z,39.70
2018-04-22T16:19:08.104Z,40.10
2018-04-22T16:21:36.057Z,40.00
2018-04-22T16:24:04.023Z,41.50
2018-04-22T16:26:32.142Z,40.40
2018-04-22T16:29:00.883Z,42.50
2018-04-22T16:31:29.773Z,41.60
2018-04-22T16:33:57.638Z,41.40
2018-04-22T16:36:25.500Z,41.30
2018-04-22T16:38:53.375Z,42.30
2018-04-22T16:41:21.363Z,40.70
2018-04-22T16:43:50.023Z,41.50
2018-04-22T16:46:17.825Z,41.50
2018-04-22T16:48:48.824Z,42.60
2018-04-22T16:51:16.597Z,42.70
2018-04-22T16:53:44.416Z,44.40
2018-04-22T16:56:12.326Z,43.40
2018-04-22T16:58:46.749Z,44.20
2018-04-22T17:01:16.050Z,44.30
2018-04-22T17:03:45.265Z,45.50
2018-04-22T17:06:14.536Z,45.90
2018-04-22T17:08:44.184Z,46.30
2018-04-22T17:11:13.383Z,45.90
2018-04-22T17:13:43.307Z,46.20
2018-04-22T17:16:17.543Z,45.90
2018-04-22T17:18:45.405Z,46.10
2018-04-22T17:21:13.147Z,44.20
2018-04-22T17:23:41.164Z,43.10
2018-04-22T17:26:09.032Z,44.70
2018-04-22T17:28:37.861Z,48.30
2018-04-22T17:31:11.280Z,52.80
2018-04-22T17:33:39.407Z,52.70
2018-04-22T17:36:10.192Z,56.70
2018-04-22T17:38:39.391Z,56.70
2018-04-22T17:41:07.213Z,59.40
2018-04-22T17:43:35.737Z,63.30
2018-04-22T17:46:03.497Z,63.30
2018-04-22T17:48:31.398Z,62.20
2018-04-22T17:50:59.150Z,64.00
2018-04-22T17:53:27.837Z,64.20
2018-04-22T17:55:55.670Z,64.20
2018-04-22T17:58:23.628Z,64.80
2018-04-22T18:00:51.397Z,65.60
2018-04-22T18:03:19.293Z,65.00
2018-04-22T18:05:47.931Z,67.40
2018-04-22T18:08:16.675Z,69.00
2018-04-22T18:10:44.466Z,67.50
2018-04-22T18:13:13.066Z,67.20
2018-04-22T18:15:40.823Z,67.20
2018-04-22T18:18:09.461Z,66.20
2018-04-22T18:20:38.277Z,69.20
2018-04-22T18:23:06.471Z,69.20
2018-04-22T18:25:34.978Z,69.50
2018-04-22T18:28:04.599Z,74.00
2018-04-22T18:30:33.539Z,75.40
2018-04-22T18:33:02.257Z,76.80
2018-04-22T18:35:30.125Z,76.70
2018-04-22T18:37:57.926Z,79.00
2018-04-22T18:40:25.837Z,78.40
2018-04-22T18:42:54.284Z,79.30
2018-04-22T18:45:22.350Z,78.10
2018-04-22T18:47:51.215Z,74.70
2018-04-22T18:50:19.005Z,74.70
2018-04-22T18:52:46.822Z,73.20
2018-04-22T18:55:14.637Z,72.70
2018-04-22T18:57:43.560Z,74.30
2018-04-22T19:00:14.525Z,74.30
2018-04-22T19:02:43.911Z,78.20
2018-04-22T19:05:13.449Z,80.70
2018-04-22T19:07:41.237Z,80.60
2018-04-22T19:10:14.759Z,80.50
2018-04-22T19:12:42.516Z,80.40
2018-04-22T19:15:10.643Z,81.00
2018-04-22T19:17:39.044Z,81.20
2018-04-22T19:20:10.081Z,83.00
2018-04-22T19:22:38.162Z,82.90
2018-04-22T19:25:09.252Z,83.70
2018-04-22T19:27:37.263Z,83.70
2018-04-22T19:30:06.476Z,84.30
2018-04-22T19:32:35.536Z,85.30
2018-04-22T19:35:06.736Z,85.30
2018-04-22T19:37:34.691Z,85.20
2018-04-22T19:40:03.267Z,84.30
2018-04-22T19:42:34.400Z,85.50
2018-04-22T19:45:04.503Z,86.40
2018-04-22T19:47:32.892Z,86.40
2018-04-22T19:50:02.768Z,86.90
2018-04-22T19:52:33.462Z,87.00
2018-04-22T19:55:03.015Z,87.00
2018-04-22T19:57:32.334Z,87.20
2018-04-22T20:00:01.105Z,86.70
2018-04-22T20:02:29.511Z,86.70
2018-04-22T20:04:57.862Z,85.70
2018-04-22T20:07:25.838Z,84.40
2018-04-22T20:09:53.759Z,84.40
2018-04-22T20:12:22.380Z,84.80
2018-04-22T20:14:50.453Z,84.80
2018-04-22T20:17:18.317Z,84.40
2018-04-22T20:19:46.286Z,85.00
2018-04-22T20:22:14.253Z,85.60
2018-04-22T20:24:42.427Z,84.90
2018-04-22T20:27:10.292Z,84.70
2018-04-22T20:29:38.156Z,84.80
2018-04-22T20:32:05.950Z,84.40
2018-04-22T20:34:34.500Z,85.60
2018-04-22T20:37:03.194Z,85.40
2018-04-22T20:39:30.983Z,85.90
2018-04-22T20:41:59.557Z,86.40
2018-04-22T20:44:28.218Z,86.70
2018-04-22T20:46:56.088Z,86.00
2018-04-22T20:49:24.053Z,85.70
2018-04-22T20:51:51.920Z,85.40
2018-04-22T20:54:19.795Z,85.50
2018-04-22T20:56:48.163Z,87.10
2018-04-22T20:59:16.028Z,87.20
2018-04-22T21:01:43.892Z,86.40
2018-04-22T21:04:11.759Z,85.40
2018-04-22T21:06:39.626Z,87.00
2018-04-22T21:09:07.436Z,87.50
2018-04-22T21:11:35.374Z,86.50
2018-04-22T21:14:03.427Z,88.20
2018-04-22T21:16:31.599Z,88.20
2018-04-22T21:18:59.465Z,87.90
2018-04-22T21:21:27.331Z,88.50
2018-04-22T21:23:55.200Z,88.20
2018-04-22T21:26:23.270Z,89.50
2018-04-22T21:28:51.136Z,87.70
2018-04-22T21:31:18.999Z,88.60
2018-04-22T21:33:46.864Z,87.50
2018-04-22T21:36:14.734Z,89.00
2018-04-22T21:38:42.811Z,89.70
2018-04-22T21:41:10.881Z,89.50
2018-04-22T21:43:38.737Z,89.00
2018-04-22T21:46:06.606Z,87.90
2018-04-22T21:48:34.469Z,88.80
2018-04-22T21:51:03.055Z,87.60
2018-04-22T21:53:30.916Z,86.90
2018-04-22T21:55:59.235Z,86.90
2018-04-22T21:58:27.098Z,87.00
2018-04-22T22:00:55.742Z,87.80
2018-04-22T22:03:23.721Z,87.80
2018-04-22T22:05:51.582Z,87.60
2018-04-22T22:08:19.442Z,87.90
2018-04-22T22:10:47.307Z,88.10
2018-04-22T22:13:15.173Z,88.00
2018-04-22T22:15:43.158Z,89.10
2018-04-22T22:18:11.018Z,88.60
2018-04-22T22:20:39.805Z,88.10
2018-04-22T22:23:08.253Z,88.20
2018-04-22T22:25:36.140Z,87.60
2018-04-22T22:28:04.006Z,87.80
2018-04-22T22:30:31.977Z,87.80
2018-04-22T22:32:59.844Z,87.60
2018-04-22T22:35:28.227Z,87.20
2018-04-22T22:37:56.085Z,87.10
2018-04-22T22:40:23.952Z,86.70
2018-04-22T22:42:52.338Z,86.70
2018-04-22T22:45:20.197Z,86.50
2018-04-22T22:47:48.062Z,85.70
2018-04-22T22:50:15.949Z,85.50
2018-04-22T22:52:45.123Z,85.20
2018-04-22T22:55:12.990Z,85.10
2018-04-22T22:57:40.854Z,85.10
2018-04-22T23:00:08.825Z,84.90
2018-04-22T23:02:36.791Z,84.70
2018-04-22T23:05:04.661Z,85.50
2018-04-22T23:07:32.625Z,85.30
2018-04-22T23:10:00.491Z,84.80
2018-04-22T23:12:28.357Z,84.30
2018-04-22T23:14:56.230Z,83.70
2018-04-22T23:17:24.293Z,84.10
2018-04-22T23:19:52.060Z,84.20
2018-04-22T23:22:20.025Z,84.80
2018-04-22T23:24:47.892Z,85.60
2018-04-22T23:27:15.758Z,85.30
2018-04-22T23:29:43.625Z,85.50
2018-04-22T23:32:11.473Z,85.20
2018-04-22T23:34:39.362Z,85.50
2018-04-22T23:37:08.756Z,85.00
2018-04-22T23:39:36.708Z,84.80
2018-04-22T23:42:04.537Z,84.50
2018-04-22T23:44:32.395Z,84.30
2018-04-22T23:47:01.037Z,84.20
2018-04-22T23:49:29.312Z,84.20
2018-04-22T23:51:57.179Z,84.00
2018-04-22T23:54:25.873Z,83.00
2018-04-22T23:56:53.731Z,83.00
2018-04-22T23:59:21.596Z,83.40
